sensor_id;sensor_type;location;lat;lon;timestamp;pressure;altitude;pressure_sealevel;temperature;humidity
72285;BME280;60220;53.552;10.092;2023-05-07T00:00:02;101948.88;;;9.22;80.49
72285;BME280;60220;53.552;10.092;2023-05-07T00:02:33;101950.75;;;9.32;79.44
72285;BME280;60220;53.552;10.092;2023-05-07T00:05:03;101946.59;;;9.52;79.60
72285;BME280;60220;53.552;10.092;2023-05-07T00:07:33;101950.19;;;9.62;78.67
72285;BME280;60220;53.552;10.092;2023-05-07T00:09:59;101941.00;;;10.05;77.18
72285;BME280;60220;53.552;10.092;2023-05-07T00:12:26;101949.28;;;9.55;78.32
72285;BME280;60220;53.552;10.092;2023-05-07T00:14:53;101940.81;;;9.83;77.40
72285;BME280;60220;53.552;10.092;2023-05-07T00:17:21;101942.19;;;9.45;78.31
72285;BME280;60220;53.552;10.092;2023-05-07T00:19:47;101942.41;;;9.66;78.08
72285;BME280;60220;53.552;10.092;2023-05-07T00:22:14;101942.34;;;9.63;77.69
72285;BME280;60220;53.552;10.092;2023-05-07T00:24:41;101938.16;;;9.82;77.54
72285;BME280;60220;53.552;10.092;2023-05-07T00:27:07;101939.19;;;9.98;76.46
72285;BME280;60220;53.552;10.092;2023-05-07T00:29:34;101941.16;;;10.20;76.02
72285;BME280;60220;53.552;10.092;2023-05-07T00:32:01;101943.84;;;10.26;75.49
72285;BME280;60220;53.552;10.092;2023-05-07T00:34:29;101943.03;;;10.36;75.86
72285;BME280;60220;53.552;10.092;2023-05-07T00:36:56;101941.13;;;10.17;75.84
72285;BME280;60220;53.552;10.092;2023-05-07T00:39:23;101934.16;;;10.19;75.77
72285;BME280;60220;53.552;10.092;2023-05-07T00:41:49;101934.75;;;9.90;77.90
72285;BME280;60220;53.552;10.092;2023-05-07T00:44:16;101936.88;;;10.31;77.06
72285;BME280;60220;53.552;10.092;2023-05-07T00:46:46;101933.84;;;9.88;77.33
72285;BME280;60220;53.552;10.092;2023-05-07T00:49:15;101931.69;;;9.45;78.30
72285;BME280;60220;53.552;10.092;2023-05-07T00:51:43;101938.00;;;9.64;77.81
72285;BME280;60220;53.552;10.092;2023-05-07T00:54:11;101931.41;;;10.11;76.25
72285;BME280;60220;53.552;10.092;2023-05-07T00:56:38;101934.25;;;10.34;76.01
72285;BME280;60220;53.552;10.092;2023-05-07T00:59:05;101934.13;;;10.16;76.47
72285;BME280;60220;53.552;10.092;2023-05-07T01:01:34;101923.22;;;9.73;75.59
72285;BME280;60220;53.552;10.092;2023-05-07T01:04:04;101925.81;;;9.66;77.37
72285;BME280;60220;53.552;10.092;2023-05-07T01:06:34;101935.47;;;9.71;76.44
72285;BME280;60220;53.552;10.092;2023-05-07T01:09:04;101930.94;;;9.57;77.61
72285;BME280;60220;53.552;10.092;2023-05-07T01:11:31;101927.03;;;10.06;75.11
72285;BME280;60220;53.552;10.092;2023-05-07T01:13:59;101925.16;;;9.91;75.00
72285;BME280;60220;53.552;10.092;2023-05-07T01:16:26;101924.25;;;9.92;75.85
72285;BME280;60220;53.552;10.092;2023-05-07T01:18:53;101920.97;;;10.14;74.73
72285;BME280;60220;53.552;10.092;2023-05-07T01:21:24;101918.00;;;9.76;76.41
72285;BME280;60220;53.552;10.092;2023-05-07T01:23:53;101924.13;;;9.74;76.47
72285;BME280;60220;53.552;10.092;2023-05-07T01:26:22;101925.72;;;9.60;76.97
72285;BME280;60220;53.552;10.092;2023-05-07T01:28:49;101930.91;;;9.54;78.33
72285;BME280;60220;53.552;10.092;2023-05-07T01:31:16;101919.41;;;10.38;75.62
72285;BME280;60220;53.552;10.092;2023-05-07T01:33:50;101915.63;;;10.04;75.40
72285;BME280;60220;53.552;10.092;2023-05-07T01:36:18;101918.31;;;10.10;74.47
72285;BME280;60220;53.552;10.092;2023-05-07T01:38:46;101911.91;;;9.76;75.29
72285;BME280;60220;53.552;10.092;2023-05-07T01:41:15;101916.16;;;9.63;75.19
72285;BME280;60220;53.552;10.092;2023-05-07T01:43:45;101916.06;;;9.57;76.56
72285;BME280;60220;53.552;10.092;2023-05-07T01:46:12;101916.03;;;9.51;76.94
72285;BME280;60220;53.552;10.092;2023-05-07T01:48:41;101918.06;;;9.79;75.74
72285;BME280;60220;53.552;10.092;2023-05-07T01:51:11;101924.88;;;9.62;76.49
72285;BME280;60220;53.552;10.092;2023-05-07T01:53:38;101917.59;;;10.29;74.56
72285;BME280;60220;53.552;10.092;2023-05-07T01:56:08;101918.25;;;10.04;74.03
72285;BME280;60220;53.552;10.092;2023-05-07T01:58:36;101914.50;;;9.74;75.81
72285;BME280;60220;53.552;10.092;2023-05-07T02:01:02;101923.03;;;9.50;77.00
72285;BME280;60220;53.552;10.092;2023-05-07T02:03:29;101924.31;;;9.97;76.14
72285;BME280;60220;53.552;10.092;2023-05-07T02:05:56;101929.75;;;9.26;78.42
72285;BME280;60220;53.552;10.092;2023-05-07T02:08:22;101931.25;;;9.90;75.85
72285;BME280;60220;53.552;10.092;2023-05-07T02:10:49;101933.97;;;10.01;75.91
72285;BME280;60220;53.552;10.092;2023-05-07T02:13:16;101932.41;;;10.22;74.76
72285;BME280;60220;53.552;10.092;2023-05-07T02:15:45;101942.03;;;10.19;75.45
72285;BME280;60220;53.552;10.092;2023-05-07T02:18:16;101939.69;;;9.59;77.64
72285;BME280;60220;53.552;10.092;2023-05-07T02:20:50;101948.06;;;9.27;79.04
72285;BME280;60220;53.552;10.092;2023-05-07T02:23:17;101955.97;;;9.29;79.24
72285;BME280;60220;53.552;10.092;2023-05-07T02:25:43;101952.00;;;9.67;77.41
72285;BME280;60220;53.552;10.092;2023-05-07T02:28:11;101951.88;;;9.54;77.98
72285;BME280;60220;53.552;10.092;2023-05-07T02:30:38;101949.03;;;10.21;76.68
72285;BME280;60220;53.552;10.092;2023-05-07T02:33:06;101950.00;;;10.34;75.84
72285;BME280;60220;53.552;10.092;2023-05-07T02:35:34;101951.41;;;9.96;76.45
72285;BME280;60220;53.552;10.092;2023-05-07T02:38:03;101951.59;;;9.26;78.11
72285;BME280;60220;53.552;10.092;2023-05-07T02:40:31;101952.56;;;9.36;78.54
72285;BME280;60220;53.552;10.092;2023-05-07T02:43:04;101949.38;;;9.67;78.37
72285;BME280;60220;53.552;10.092;2023-05-07T02:45:33;101951.38;;;9.92;77.11
72285;BME280;60220;53.552;10.092;2023-05-07T02:47:59;101967.56;;;9.49;78.65
72285;BME280;60220;53.552;10.092;2023-05-07T02:50:27;101971.22;;;9.65;77.63
72285;BME280;60220;53.552;10.092;2023-05-07T02:52:57;101970.63;;;9.93;77.13
72285;BME280;60220;53.552;10.092;2023-05-07T02:55:23;101965.63;;;10.16;75.45
72285;BME280;60220;53.552;10.092;2023-05-07T02:57:52;101956.75;;;10.05;76.58
72285;BME280;60220;53.552;10.092;2023-05-07T03:00:20;101952.63;;;10.34;75.95
72285;BME280;60220;53.552;10.092;2023-05-07T03:02:47;101964.59;;;9.22;77.92
72285;BME280;60220;53.552;10.092;2023-05-07T03:05:13;101963.88;;;9.33;78.74
72285;BME280;60220;53.552;10.092;2023-05-07T03:07:41;101969.06;;;9.29;78.94
72285;BME280;60220;53.552;10.092;2023-05-07T03:10:12;101970.72;;;9.21;79.94
72285;BME280;60220;53.552;10.092;2023-05-07T03:12:39;101969.22;;;9.41;79.00
72285;BME280;60220;53.552;10.092;2023-05-07T03:15:06;101971.53;;;9.17;79.86
72285;BME280;60220;53.552;10.092;2023-05-07T03:17:33;101971.53;;;9.17;79.67
72285;BME280;60220;53.552;10.092;2023-05-07T03:20:03;101963.41;;;9.69;78.58
72285;BME280;60220;53.552;10.092;2023-05-07T03:22:32;101960.25;;;10.07;77.07
72285;BME280;60220;53.552;10.092;2023-05-07T03:25:00;101963.50;;;9.81;76.32
72285;BME280;60220;53.552;10.092;2023-05-07T03:27:27;101960.16;;;9.98;76.27
72285;BME280;60220;53.552;10.092;2023-05-07T03:29:53;101956.31;;;9.59;77.42
72285;BME280;60220;53.552;10.092;2023-05-07T03:32:20;101970.97;;;9.42;77.78
72285;BME280;60220;53.552;10.092;2023-05-07T03:34:49;101968.28;;;9.36;78.31
72285;BME280;60220;53.552;10.092;2023-05-07T03:37:16;101960.53;;;9.45;77.96
72285;BME280;60220;53.552;10.092;2023-05-07T03:39:45;101953.69;;;9.59;76.84
72285;BME280;60220;53.552;10.092;2023-05-07T03:42:13;101968.25;;;9.33;77.94
72285;BME280;60220;53.552;10.092;2023-05-07T03:44:42;101958.09;;;9.63;76.69
72285;BME280;60220;53.552;10.092;2023-05-07T03:47:08;101954.97;;;10.04;75.78
72285;BME280;60220;53.552;10.092;2023-05-07T03:49:35;101952.41;;;10.10;73.99
72285;BME280;60220;53.552;10.092;2023-05-07T03:52:02;101960.69;;;9.60;75.51
72285;BME280;60220;53.552;10.092;2023-05-07T03:54:30;101962.81;;;9.99;74.26
72285;BME280;60220;53.552;10.092;2023-05-07T03:56:57;101960.53;;;10.35;73.30
72285;BME280;60220;53.552;10.092;2023-05-07T03:59:25;101968.13;;;10.05;73.92
72285;BME280;60220;53.552;10.092;2023-05-07T04:01:54;101968.63;;;10.69;72.09
72285;BME280;60220;53.552;10.092;2023-05-07T04:04:20;101961.41;;;9.47;75.26
72285;BME280;60220;53.552;10.092;2023-05-07T04:06:47;101969.19;;;10.27;73.75
72285;BME280;60220;53.552;10.092;2023-05-07T04:09:13;101970.16;;;10.35;72.82
72285;BME280;60220;53.552;10.092;2023-05-07T04:11:40;101973.69;;;10.40;72.58
72285;BME280;60220;53.552;10.092;2023-05-07T04:14:07;101977.69;;;10.02;73.94
72285;BME280;60220;53.552;10.092;2023-05-07T04:16:35;101978.75;;;10.16;74.10
72285;BME280;60220;53.552;10.092;2023-05-07T04:19:04;101978.81;;;10.25;73.65
72285;BME280;60220;53.552;10.092;2023-05-07T04:21:31;101975.66;;;9.73;75.38
72285;BME280;60220;53.552;10.092;2023-05-07T04:23:58;101982.16;;;10.10;73.88
72285;BME280;60220;53.552;10.092;2023-05-07T04:26:24;101986.13;;;9.70;75.65
72285;BME280;60220;53.552;10.092;2023-05-07T04:28:53;101980.81;;;9.64;75.75
72285;BME280;60220;53.552;10.092;2023-05-07T04:31:20;101981.22;;;10.07;75.08
72285;BME280;60220;53.552;10.092;2023-05-07T04:33:50;101978.41;;;9.84;74.56
72285;BME280;60220;53.552;10.092;2023-05-07T04:36:17;101975.75;;;9.82;73.56
72285;BME280;60220;53.552;10.092;2023-05-07T04:38:44;101980.72;;;9.55;75.04
72285;BME280;60220;53.552;10.092;2023-05-07T04:41:12;101977.19;;;9.51;74.88
72285;BME280;60220;53.552;10.092;2023-05-07T04:43:39;101978.78;;;9.36;74.99
72285;BME280;60220;53.552;10.092;2023-05-07T04:46:09;101985.00;;;9.45;75.39
72285;BME280;60220;53.552;10.092;2023-05-07T04:48:35;101981.25;;;9.27;75.98
72285;BME280;60220;53.552;10.092;2023-05-07T04:51:03;101986.50;;;9.27;75.80
72285;BME280;60220;53.552;10.092;2023-05-07T04:53:31;101992.22;;;9.66;74.67
72285;BME280;60220;53.552;10.092;2023-05-07T04:55:57;101988.56;;;9.54;74.92
72285;BME280;60220;53.552;10.092;2023-05-07T04:58:24;101984.47;;;9.81;73.93
72285;BME280;60220;53.552;10.092;2023-05-07T05:00:51;101997.28;;;9.51;75.27
72285;BME280;60220;53.552;10.092;2023-05-07T05:03:18;102004.94;;;9.34;74.93
72285;BME280;60220;53.552;10.092;2023-05-07T05:05:48;102004.78;;;9.21;75.36
72285;BME280;60220;53.552;10.092;2023-05-07T05:08:16;102001.22;;;9.92;74.93
72285;BME280;60220;53.552;10.092;2023-05-07T05:10:43;102009.72;;;9.72;73.88
72285;BME280;60220;53.552;10.092;2023-05-07T05:13:11;102000.31;;;9.89;74.25
72285;BME280;60220;53.552;10.092;2023-05-07T05:15:41;102006.63;;;10.09;73.86
72285;BME280;60220;53.552;10.092;2023-05-07T05:18:07;102007.81;;;10.40;72.35
72285;BME280;60220;53.552;10.092;2023-05-07T05:20:34;102006.63;;;10.12;73.23
72285;BME280;60220;53.552;10.092;2023-05-07T05:23:01;102011.34;;;10.45;71.95
72285;BME280;60220;53.552;10.092;2023-05-07T05:25:29;102007.53;;;10.13;72.87
72285;BME280;60220;53.552;10.092;2023-05-07T05:27:58;102002.38;;;10.19;73.64
72285;BME280;60220;53.552;10.092;2023-05-07T05:30:26;102003.00;;;9.98;73.98
72285;BME280;60220;53.552;10.092;2023-05-07T05:32:53;101999.91;;;9.51;74.52
72285;BME280;60220;53.552;10.092;2023-05-07T05:35:20;101995.69;;;9.64;75.15
72285;BME280;60220;53.552;10.092;2023-05-07T05:37:46;102007.13;;;9.73;74.72
72285;BME280;60220;53.552;10.092;2023-05-07T05:40:16;102006.84;;;10.30;73.73
72285;BME280;60220;53.552;10.092;2023-05-07T05:42:45;102001.34;;;10.08;72.76
72285;BME280;60220;53.552;10.092;2023-05-07T05:45:11;102005.38;;;10.69;72.05
72285;BME280;60220;53.552;10.092;2023-05-07T05:47:38;102009.69;;;10.59;72.05
72285;BME280;60220;53.552;10.092;2023-05-07T05:50:06;102008.59;;;10.33;72.25
72285;BME280;60220;53.552;10.092;2023-05-07T05:52:33;102018.56;;;9.78;74.21
72285;BME280;60220;53.552;10.092;2023-05-07T05:55:00;102016.06;;;9.90;74.48
72285;BME280;60220;53.552;10.092;2023-05-07T05:57:26;102020.50;;;9.96;74.07
72285;BME280;60220;53.552;10.092;2023-05-07T05:59:54;102012.94;;;10.28;72.78
72285;BME280;60220;53.552;10.092;2023-05-07T06:02:21;102012.09;;;10.30;73.15
72285;BME280;60220;53.552;10.092;2023-05-07T06:04:50;102019.16;;;10.36;73.69
72285;BME280;60220;53.552;10.092;2023-05-07T06:07:19;102026.19;;;10.46;72.51
72285;BME280;60220;53.552;10.092;2023-05-07T06:09:46;102029.16;;;10.92;71.04
72285;BME280;60220;53.552;10.092;2023-05-07T06:12:12;102032.53;;;10.72;70.89
72285;BME280;60220;53.552;10.092;2023-05-07T06:14:42;102038.66;;;10.70;70.30
72285;BME280;60220;53.552;10.092;2023-05-07T06:17:10;102037.38;;;10.22;72.57
72285;BME280;60220;53.552;10.092;2023-05-07T06:19:37;102040.63;;;9.99;73.53
72285;BME280;60220;53.552;10.092;2023-05-07T06:22:05;102043.63;;;10.36;72.34
72285;BME280;60220;53.552;10.092;2023-05-07T06:24:32;102034.00;;;10.37;72.74
72285;BME280;60220;53.552;10.092;2023-05-07T06:26:58;102036.53;;;10.25;72.61
72285;BME280;60220;53.552;10.092;2023-05-07T06:29:25;102032.00;;;10.12;73.40
72285;BME280;60220;53.552;10.092;2023-05-07T06:31:52;102035.22;;;9.86;73.59
72285;BME280;60220;53.552;10.092;2023-05-07T06:34:20;102044.38;;;10.23;73.50
72285;BME280;60220;53.552;10.092;2023-05-07T06:36:46;102034.88;;;10.38;73.19
72285;BME280;60220;53.552;10.092;2023-05-07T06:39:13;102040.78;;;10.14;73.72
72285;BME280;60220;53.552;10.092;2023-05-07T06:41:41;102038.47;;;9.61;74.11
72285;BME280;60220;53.552;10.092;2023-05-07T06:44:07;102031.00;;;9.96;74.28
72285;BME280;60220;53.552;10.092;2023-05-07T06:46:34;102036.50;;;10.22;73.34
72285;BME280;60220;53.552;10.092;2023-05-07T06:49:00;102036.16;;;9.88;73.38
72285;BME280;60220;53.552;10.092;2023-05-07T06:51:32;102042.81;;;10.42;71.91
72285;BME280;60220;53.552;10.092;2023-05-07T06:54:01;102037.66;;;10.54;71.94
72285;BME280;60220;53.552;10.092;2023-05-07T06:56:29;102037.41;;;10.27;72.25
72285;BME280;60220;53.552;10.092;2023-05-07T06:58:56;102043.28;;;10.00;73.40
72285;BME280;60220;53.552;10.092;2023-05-07T07:01:26;102047.78;;;10.15;73.73
72285;BME280;60220;53.552;10.092;2023-05-07T07:03:55;102050.13;;;10.83;71.59
72285;BME280;60220;53.552;10.092;2023-05-07T07:06:22;102047.38;;;10.64;71.81
72285;BME280;60220;53.552;10.092;2023-05-07T07:08:49;102050.84;;;10.63;71.72
72285;BME280;60220;53.552;10.092;2023-05-07T07:11:16;102046.47;;;10.62;71.61
72285;BME280;60220;53.552;10.092;2023-05-07T07:13:43;102042.03;;;10.54;72.43
72285;BME280;60220;53.552;10.092;2023-05-07T07:16:09;102050.84;;;10.60;72.16
72285;BME280;60220;53.552;10.092;2023-05-07T07:18:36;102050.84;;;10.63;72.36
72285;BME280;60220;53.552;10.092;2023-05-07T07:21:05;102045.59;;;9.71;74.17
72285;BME280;60220;53.552;10.092;2023-05-07T07:23:32;102042.72;;;10.30;73.31
72285;BME280;60220;53.552;10.092;2023-05-07T07:26:02;102042.06;;;10.61;71.94
72285;BME280;60220;53.552;10.092;2023-05-07T07:28:29;102047.97;;;10.30;72.83
72285;BME280;60220;53.552;10.092;2023-05-07T07:30:55;102043.59;;;10.32;72.77
72285;BME280;60220;53.552;10.092;2023-05-07T07:33:22;102034.06;;;10.43;72.46
72285;BME280;60220;53.552;10.092;2023-05-07T07:35:49;102038.75;;;10.84;71.28
72285;BME280;60220;53.552;10.092;2023-05-07T07:38:15;102036.22;;;10.99;69.63
72285;BME280;60220;53.552;10.092;2023-05-07T07:40:42;102030.53;;;10.41;71.14
72285;BME280;60220;53.552;10.092;2023-05-07T07:43:10;102032.53;;;10.69;70.86
72285;BME280;60220;53.552;10.092;2023-05-07T07:45:37;102031.75;;;10.84;71.23
72285;BME280;60220;53.552;10.092;2023-05-07T07:48:04;102051.63;;;10.50;71.68
72285;BME280;60220;53.552;10.092;2023-05-07T07:50:31;102049.13;;;10.64;71.91
72285;BME280;60220;53.552;10.092;2023-05-07T07:52:58;102054.59;;;10.96;70.94
72285;BME280;60220;53.552;10.092;2023-05-07T07:55:25;102058.72;;;10.60;72.10
72285;BME280;60220;53.552;10.092;2023-05-07T07:57:52;102052.56;;;10.61;71.86
72285;BME280;60220;53.552;10.092;2023-05-07T08:00:21;102061.56;;;10.91;70.72
72285;BME280;60220;53.552;10.092;2023-05-07T08:02:48;102052.69;;;10.75;70.80
72285;BME280;60220;53.552;10.092;2023-05-07T08:05:14;102060.66;;;10.86;70.83
72285;BME280;60220;53.552;10.092;2023-05-07T08:07:41;102057.97;;;10.79;70.59
72285;BME280;60220;53.552;10.092;2023-05-07T08:10:09;102055.34;;;10.79;71.44
72285;BME280;60220;53.552;10.092;2023-05-07T08:12:38;102056.28;;;10.88;71.29
72285;BME280;60220;53.552;10.092;2023-05-07T08:15:05;102055.19;;;10.58;71.33
72285;BME280;60220;53.552;10.092;2023-05-07T08:17:33;102069.38;;;10.86;70.85
72285;BME280;60220;53.552;10.092;2023-05-07T08:20:00;102066.94;;;11.09;69.69
72285;BME280;60220;53.552;10.092;2023-05-07T08:22:27;102071.41;;;11.25;69.34
72285;BME280;60220;53.552;10.092;2023-05-07T08:24:53;102074.66;;;10.85;70.18
72285;BME280;60220;53.552;10.092;2023-05-07T08:27:22;102074.63;;;10.82;71.11
72285;BME280;60220;53.552;10.092;2023-05-07T08:29:52;102075.25;;;10.49;70.64
72285;BME280;60220;53.552;10.092;2023-05-07T08:32:19;102067.63;;;10.84;71.06
72285;BME280;60220;53.552;10.092;2023-05-07T08:34:47;102071.06;;;10.70;71.11
72285;BME280;60220;53.552;10.092;2023-05-07T08:37:13;102073.84;;;10.95;70.77
72285;BME280;60220;53.552;10.092;2023-05-07T08:39:40;102074.50;;;10.63;71.06
72285;BME280;60220;53.552;10.092;2023-05-07T08:42:09;102071.97;;;10.77;71.80
72285;BME280;60220;53.552;10.092;2023-05-07T08:44:38;102073.00;;;10.96;70.24
72285;BME280;60220;53.552;10.092;2023-05-07T08:47:06;102078.34;;;11.14;69.59
72285;BME280;60220;53.552;10.092;2023-05-07T08:49:34;102082.06;;;11.58;68.54
72285;BME280;60220;53.552;10.092;2023-05-07T08:52:02;102080.16;;;11.27;68.69
72285;BME280;60220;53.552;10.092;2023-05-07T08:54:30;102090.75;;;11.39;68.03
72285;BME280;60220;53.552;10.092;2023-05-07T08:57:00;102089.91;;;11.45;67.41
72285;BME280;60220;53.552;10.092;2023-05-07T08:59:26;102095.81;;;11.04;68.95
72285;BME280;60220;53.552;10.092;2023-05-07T09:01:55;102085.13;;;10.82;69.93
72285;BME280;60220;53.552;10.092;2023-05-07T09:04:22;102094.16;;;11.20;69.23
72285;BME280;60220;53.552;10.092;2023-05-07T09:06:49;102085.19;;;10.88;69.89
72285;BME280;60220;53.552;10.092;2023-05-07T09:09:18;102101.31;;;11.45;68.59
72285;BME280;60220;53.552;10.092;2023-05-07T09:11:45;102103.28;;;11.93;67.02
72285;BME280;60220;53.552;10.092;2023-05-07T09:14:11;102105.00;;;11.84;67.51
72285;BME280;60220;53.552;10.092;2023-05-07T09:16:38;102099.69;;;11.73;67.69
72285;BME280;60220;53.552;10.092;2023-05-07T09:19:09;102104.91;;;11.64;66.37
72285;BME280;60220;53.552;10.092;2023-05-07T09:21:36;102115.53;;;11.87;66.51
72285;BME280;60220;53.552;10.092;2023-05-07T09:24:03;102104.78;;;11.40;68.61
72285;BME280;60220;53.552;10.092;2023-05-07T09:26:31;102108.41;;;11.66;68.11
72285;BME280;60220;53.552;10.092;2023-05-07T09:28:59;102110.09;;;11.53;68.42
72285;BME280;60220;53.552;10.092;2023-05-07T09:31:25;102118.19;;;11.88;66.88
72285;BME280;60220;53.552;10.092;2023-05-07T09:33:52;102115.59;;;11.99;66.03
72285;BME280;60220;53.552;10.092;2023-05-07T09:36:21;102118.91;;;11.66;67.32
72285;BME280;60220;53.552;10.092;2023-05-07T09:38:48;102112.66;;;11.41;67.54
72285;BME280;60220;53.552;10.092;2023-05-07T09:41:14;102115.25;;;11.37;68.49
72285;BME280;60220;53.552;10.092;2023-05-07T09:43:42;102111.78;;;11.39;68.05
72285;BME280;60220;53.552;10.092;2023-05-07T09:46:12;102113.84;;;12.04;66.16
72285;BME280;60220;53.552;10.092;2023-05-07T09:48:42;102117.16;;;11.66;66.84
72285;BME280;60220;53.552;10.092;2023-05-07T09:51:18;102113.66;;;11.64;67.07
72285;BME280;60220;53.552;10.092;2023-05-07T09:53:48;102119.66;;;11.35;67.91
72285;BME280;60220;53.552;10.092;2023-05-07T09:56:15;102114.38;;;11.33;68.63
72285;BME280;60220;53.552;10.092;2023-05-07T09:58:44;102118.88;;;11.57;67.94
72285;BME280;60220;53.552;10.092;2023-05-07T10:01:13;102119.63;;;11.30;67.81
72285;BME280;60220;53.552;10.092;2023-05-07T10:03:40;102116.19;;;11.46;67.71
72285;BME280;60220;53.552;10.092;2023-05-07T10:06:09;102125.84;;;11.44;68.29
72285;BME280;60220;53.552;10.092;2023-05-07T10:08:36;102122.34;;;11.51;68.10
72285;BME280;60220;53.552;10.092;2023-05-07T10:11:04;102117.91;;;11.35;68.00
72285;BME280;60220;53.552;10.092;2023-05-07T10:13:32;102114.41;;;11.38;68.01
72285;BME280;60220;53.552;10.092;2023-05-07T10:16:02;102126.69;;;11.42;68.26
72285;BME280;60220;53.552;10.092;2023-05-07T10:18:32;102120.06;;;12.29;65.96
72285;BME280;60220;53.552;10.092;2023-05-07T10:21:04;102123.50;;;12.05;65.87
72285;BME280;60220;53.552;10.092;2023-05-07T10:23:33;102119.16;;;12.31;65.33
72285;BME280;60220;53.552;10.092;2023-05-07T10:26:02;102116.19;;;11.43;66.74
72285;BME280;60220;53.552;10.092;2023-05-07T10:28:36;102114.47;;;11.56;66.79
72285;BME280;60220;53.552;10.092;2023-05-07T10:31:26;102113.59;;;11.49;66.99
72285;BME280;60220;53.552;10.092;2023-05-07T10:34:00;102119.88;;;11.77;66.81
72285;BME280;60220;53.552;10.092;2023-05-07T10:36:44;102114.78;;;12.29;64.61
72285;BME280;60220;53.552;10.092;2023-05-07T10:39:11;102124.31;;;11.92;66.25
72285;BME280;60220;53.552;10.092;2023-05-07T10:41:39;102115.63;;;12.14;65.54
72285;BME280;60220;53.552;10.092;2023-05-07T10:44:06;102120.91;;;12.31;64.60
72285;BME280;60220;53.552;10.092;2023-05-07T10:46:34;102125.16;;;11.74;65.98
72285;BME280;60220;53.552;10.092;2023-05-07T10:49:07;102120.84;;;12.02;65.42
72285;BME280;60220;53.552;10.092;2023-05-07T10:51:36;102118.28;;;12.25;65.83
72285;BME280;60220;53.552;10.092;2023-05-07T10:54:21;102106.94;;;12.70;63.70
72285;BME280;60220;53.552;10.092;2023-05-07T10:56:49;102113.91;;;12.56;63.80
72285;BME280;60220;53.552;10.092;2023-05-07T10:59:35;102111.25;;;12.40;64.09
72285;BME280;60220;53.552;10.092;2023-05-07T11:02:09;102119.19;;;12.34;64.05
72285;BME280;60220;53.552;10.092;2023-05-07T11:04:38;102115.66;;;13.05;62.06
72285;BME280;60220;53.552;10.092;2023-05-07T11:07:29;102106.00;;;12.42;63.12
72285;BME280;60220;53.552;10.092;2023-05-07T11:10:05;102107.78;;;12.47;62.44
72285;BME280;60220;53.552;10.092;2023-05-07T11:12:52;102110.38;;;12.35;63.49
72285;BME280;60220;53.552;10.092;2023-05-07T11:15:36;102106.00;;;12.46;63.57
72285;BME280;60220;53.552;10.092;2023-05-07T11:18:04;102106.88;;;12.36;64.26
72285;BME280;60220;53.552;10.092;2023-05-07T11:20:51;102125.28;;;12.14;64.00
72285;BME280;60220;53.552;10.092;2023-05-07T11:26:04;102119.13;;;12.10;63.75
72285;BME280;60220;53.552;10.092;2023-05-07T11:28:32;102119.16;;;12.31;64.25
72285;BME280;60220;53.552;10.092;2023-05-07T11:31:04;102110.41;;;12.57;63.46
72285;BME280;60220;53.552;10.092;2023-05-07T11:33:33;102106.03;;;12.59;63.57
72285;BME280;60220;53.552;10.092;2023-05-07T11:36:03;102110.41;;;12.91;62.15
72285;BME280;60220;53.552;10.092;2023-05-07T11:38:30;102100.75;;;13.09;61.93
72285;BME280;60220;53.552;10.092;2023-05-07T11:40:57;102096.38;;;12.53;63.71
72285;BME280;60220;53.552;10.092;2023-05-07T11:43:26;102099.00;;;12.39;62.78
72285;BME280;60220;53.552;10.092;2023-05-07T11:45:52;102111.28;;;13.01;62.21
72285;BME280;60220;53.552;10.092;2023-05-07T11:48:21;102098.09;;;13.04;61.24
72285;BME280;60220;53.552;10.092;2023-05-07T11:50:52;102091.09;;;13.14;60.97
72285;BME280;60220;53.552;10.092;2023-05-07T11:53:20;102091.09;;;12.94;61.44
72285;BME280;60220;53.552;10.092;2023-05-07T11:55:52;102096.34;;;12.97;60.80
72285;BME280;60220;53.552;10.092;2023-05-07T11:58:22;102088.44;;;12.95;60.96
72285;BME280;60220;53.552;10.092;2023-05-07T12:00:49;102090.19;;;13.24;61.83
72285;BME280;60220;53.552;10.092;2023-05-07T12:03:18;102078.78;;;13.17;60.78
72285;BME280;60220;53.552;10.092;2023-05-07T12:05:47;102084.06;;;13.11;61.63
72285;BME280;60220;53.552;10.092;2023-05-07T12:08:16;102087.53;;;13.34;60.75
72285;BME280;60220;53.552;10.092;2023-05-07T12:10:43;102085.75;;;13.38;60.56
72285;BME280;60220;53.552;10.092;2023-05-07T12:13:16;102088.19;;;13.85;59.79
72285;BME280;60220;53.552;10.092;2023-05-07T12:15:44;102082.13;;;13.69;59.93
72285;BME280;60220;53.552;10.092;2023-05-07T12:18:13;102090.63;;;14.25;58.75
72285;BME280;60220;53.552;10.092;2023-05-07T12:20:41;102085.31;;;14.28;57.59
72285;BME280;60220;53.552;10.092;2023-05-07T12:23:08;102087.19;;;14.07;58.41
72285;BME280;60220;53.552;10.092;2023-05-07T12:25:38;102086.56;;;13.55;59.37
72285;BME280;60220;53.552;10.092;2023-05-07T12:28:07;102087.28;;;13.86;59.24
72285;BME280;60220;53.552;10.092;2023-05-07T12:30:36;102084.38;;;14.30;58.52
72285;BME280;60220;53.552;10.092;2023-05-07T12:33:06;102088.59;;;14.60;57.71
72285;BME280;60220;53.552;10.092;2023-05-07T12:35:37;102080.19;;;15.10;56.36
72285;BME280;60220;53.552;10.092;2023-05-07T12:38:08;102072.88;;;14.45;57.39
72285;BME280;60220;53.552;10.092;2023-05-07T12:40:38;102078.34;;;14.14;57.71
72285;BME280;60220;53.552;10.092;2023-05-07T12:43:04;102087.03;;;14.32;57.23
72285;BME280;60220;53.552;10.092;2023-05-07T12:45:36;102090.41;;;14.55;57.83
72285;BME280;60220;53.552;10.092;2023-05-07T12:48:03;102085.22;;;14.40;57.79
72285;BME280;60220;53.552;10.092;2023-05-07T12:50:33;102088.91;;;15.20;56.10